createdAt,value
2022-08-29T00:01:33.275Z,101315.84
2022-08-29T00:03:36.566Z,101310.22
2022-08-29T00:05:40.015Z,101121.13
2022-08-29T00:07:44.664Z,101296.09
2022-08-29T00:09:47.206Z,101156.00
2022-08-29T00:11:49.940Z,101310.97
2022-08-29T00:13:52.737Z,101240.97
2022-08-29T00:15:57.378Z,101309.91
2022-08-29T00:18:00.328Z,101284.06
2022-08-29T00:20:05.702Z,101308.56
2022-08-29T00:22:08.313Z,101313.38
2022-08-29T00:24:10.937Z,101307.03
2022-08-29T00:26:13.719Z,101301.38
2022-08-29T00:28:16.657Z,101272.56
2022-08-29T00:30:21.550Z,101214.53
2022-08-29T00:32:24.260Z,101289.84
2022-08-29T00:34:27.133Z,101179.44
2022-08-29T00:36:30.544Z,101311.13
2022-08-29T00:38:33.801Z,101281.22
2022-08-29T00:40:41.728Z,101331.06
2022-08-29T00:42:47.607Z,101275.88
2022-08-29T00:44:50.322Z,101294.53
2022-08-29T00:46:57.586Z,101302.00
2022-08-29T00:49:07.773Z,101315.84
2022-08-29T00:51:18.073Z,101287.00
2022-08-29T00:53:31.950Z,101235.63
2022-08-29T00:55:36.343Z,101319.56
2022-08-29T00:57:45.393Z,101258.13
2022-08-29T00:59:50.699Z,101318.44
2022-08-29T01:01:53.444Z,101244.13
2022-08-29T01:03:56.137Z,101174.78
2022-08-29T01:06:00.475Z,101251.78
2022-08-29T01:08:04.443Z,101291.06
2022-08-29T01:10:13.561Z,101200.25
2022-08-29T01:12:16.771Z,101217.56
2022-08-29T01:14:22.098Z,101325.94
2022-08-29T01:16:33.440Z,101291.09
2022-08-29T01:18:38.255Z,101306.84
2022-08-29T01:21:03.997Z,101340.88
2022-08-29T01:23:44.433Z,101305.28
2022-08-29T01:25:50.767Z,101342.38
2022-08-29T01:28:06.906Z,101327.38
2022-08-29T01:30:11.602Z,101333.84
2022-08-29T01:32:15.512Z,101238.72
2022-08-29T01:34:45.732Z,101303.78
2022-08-29T01:37:01.733Z,101356.75
2022-08-29T01:39:06.379Z,101237.53
2022-08-29T01:41:10.914Z,101250.13
2022-08-29T01:43:13.487Z,101249.47
2022-08-29T01:45:16.214Z,101253.78
2022-08-29T01:47:19.955Z,101340.31
2022-08-29T01:49:24.575Z,101322.22
2022-08-29T01:51:27.157Z,101319.59
2022-08-29T01:53:29.764Z,101328.63
2022-08-29T01:55:32.567Z,101304.56
2022-08-29T01:57:39.172Z,101243.22
2022-08-29T01:59:42.808Z,101236.84
2022-08-29T02:01:53.456Z,101242.66
2022-08-29T02:03:58.446Z,101226.09
2022-08-29T02:06:02.422Z,101359.06
2022-08-29T02:08:05.272Z,101228.19
2022-08-29T02:10:08.389Z,101252.75
2022-08-29T02:12:11.251Z,101252.03
2022-08-29T02:14:19.293Z,101361.78
2022-08-29T02:16:30.080Z,101314.84
2022-08-29T02:18:33.334Z,101350.41
2022-08-29T02:20:35.959Z,101253.47
2022-08-29T02:22:40.327Z,101346.03
2022-08-29T02:24:43.208Z,101260.28
2022-08-29T02:26:45.824Z,101240.56
2022-08-29T02:28:51.717Z,101345.78
2022-08-29T02:30:56.622Z,101246.44
2022-08-29T02:32:59.776Z,101363.09
2022-08-29T02:35:02.471Z,101321.91
2022-08-29T02:37:07.767Z,101272.00
2022-08-29T02:39:10.400Z,101167.38
2022-08-29T02:41:14.442Z,101328.00
2022-08-29T02:43:19.580Z,101360.38
2022-08-29T02:45:23.520Z,101362.69
2022-08-29T02:47:28.058Z,101355.72
2022-08-29T02:49:30.621Z,101333.78
2022-08-29T02:51:34.183Z,101331.69
2022-08-29T02:53:36.937Z,101273.66
2022-08-29T02:55:39.867Z,101323.03
2022-08-29T02:57:43.234Z,101259.41
2022-08-29T02:59:45.837Z,101190.72
2022-08-29T03:01:48.494Z,101332.94
2022-08-29T03:03:51.595Z,101234.16
2022-08-29T03:05:55.159Z,101343.16
2022-08-29T03:07:58.666Z,101326.56
2022-08-29T03:10:01.250Z,101341.78
2022-08-29T03:12:04.158Z,101318.50
2022-08-29T03:14:06.749Z,101322.84
2022-08-29T03:16:10.199Z,101355.88
2022-08-29T03:18:13.061Z,101336.00
2022-08-29T03:20:18.666Z,101318.22
2022-08-29T03:22:21.360Z,101313.06
2022-08-29T03:24:26.359Z,101236.59
2022-08-29T03:26:30.268Z,101222.63
2022-08-29T03:28:32.908Z,101204.47
2022-08-29T03:30:35.714Z,101319.31
2022-08-29T03:32:39.571Z,101354.56
2022-08-29T03:34:42.200Z,101242.69
2022-08-29T03:36:44.838Z,101254.03
2022-08-29T03:38:48.609Z,101332.59
2022-08-29T03:40:51.256Z,101346.41
2022-08-29T03:42:55.350Z,101239.50
2022-08-29T03:44:58.064Z,101304.53
2022-08-29T03:47:00.877Z,101338.78
2022-08-29T03:49:04.009Z,101345.66
2022-08-29T03:51:06.623Z,101216.34
2022-08-29T03:53:09.454Z,101353.00
2022-08-29T03:55:13.511Z,101342.28
2022-08-29T03:57:16.117Z,101299.75
2022-08-29T03:59:19.708Z,101325.09
2022-08-29T04:01:26.217Z,101352.38
2022-08-29T04:03:31.193Z,101230.25
2022-08-29T04:05:34.175Z,101265.66
2022-08-29T04:07:59.924Z,101283.03
2022-08-29T04:10:08.319Z,101317.44
2022-08-29T04:12:12.538Z,101338.78
2022-08-29T04:14:15.176Z,101338.91
2022-08-29T04:16:23.094Z,101336.81
2022-08-29T04:18:26.286Z,101255.97
2022-08-29T04:20:32.924Z,101231.56
2022-08-29T04:22:48.790Z,101330.53
2022-08-29T04:24:52.601Z,101324.25
2022-08-29T04:26:55.208Z,101331.47
2022-08-29T04:28:57.841Z,101360.81
2022-08-29T04:31:00.449Z,101336.41
2022-08-29T04:33:03.093Z,101315.44
2022-08-29T04:35:07.254Z,101347.94
2022-08-29T04:37:10.080Z,101344.50
2022-08-29T04:39:13.820Z,101354.34
2022-08-29T04:41:16.466Z,101231.41
2022-08-29T04:43:20.281Z,101313.75
2022-08-29T04:45:23.375Z,101327.19
2022-08-29T04:47:26.032Z,101328.88
2022-08-29T04:49:28.753Z,101327.94
2022-08-29T04:51:34.539Z,101220.50
2022-08-29T04:53:37.635Z,101335.59
2022-08-29T04:55:40.291Z,101337.75
2022-08-29T04:57:43.302Z,101375.56
2022-08-29T04:59:47.577Z,101327.06
2022-08-29T05:01:53.827Z,101351.78
2022-08-29T05:03:58.032Z,101326.78
2022-08-29T05:06:07.007Z,101376.72
2022-08-29T05:08:09.666Z,101369.34
2022-08-29T05:10:19.105Z,101370.94
2022-08-29T05:12:21.703Z,101330.78
2022-08-29T05:14:24.291Z,101308.25
2022-08-29T05:16:27.539Z,101292.22
2022-08-29T05:18:30.105Z,101251.69
2022-08-29T05:20:32.723Z,101269.72
2022-08-29T05:22:36.400Z,101256.09
2022-08-29T05:24:39.054Z,101225.91
2022-08-29T05:26:45.282Z,101366.44
2022-08-29T05:28:47.947Z,101283.09
2022-08-29T05:30:51.019Z,101384.09
2022-08-29T05:32:55.122Z,101384.47
2022-08-29T05:34:58.899Z,101243.69
2022-08-29T05:37:04.198Z,101373.59
2022-08-29T05:39:25.974Z,101382.00
2022-08-29T05:41:29.281Z,101387.69
2022-08-29T05:43:33.299Z,101365.84
2022-08-29T05:45:37.831Z,101359.53
2022-08-29T05:47:40.494Z,101237.78
2022-08-29T05:49:44.452Z,101345.16
2022-08-29T05:51:47.162Z,101390.75
2022-08-29T05:53:50.081Z,101366.84
2022-08-29T05:55:53.614Z,101394.22
2022-08-29T05:57:56.225Z,101380.97
2022-08-29T05:59:58.839Z,101398.78
2022-08-29T06:02:01.658Z,101396.16
2022-08-29T06:04:04.463Z,101369.03
2022-08-29T06:06:07.500Z,101279.38
2022-08-29T06:08:10.182Z,101384.03
2022-08-29T06:10:12.793Z,101388.63
2022-08-29T06:12:15.745Z,101352.47
2022-08-29T06:14:18.312Z,101298.38
2022-08-29T06:16:23.553Z,101388.22
2022-08-29T06:18:33.608Z,101345.34
2022-08-29T06:20:39.617Z,101282.19
2022-08-29T06:22:42.258Z,101305.16
2022-08-29T06:24:46.131Z,101386.13
2022-08-29T06:26:49.974Z,101377.59
2022-08-29T06:28:52.574Z,101316.34
2022-08-29T06:30:55.642Z,101384.53
2022-08-29T06:32:58.385Z,101391.94
2022-08-29T06:35:01.008Z,101317.41
2022-08-29T06:37:03.967Z,101322.22
2022-08-29T06:39:10.240Z,101342.44
2022-08-29T06:41:16.128Z,101431.19
2022-08-29T06:43:18.752Z,101431.44
2022-08-29T06:45:21.412Z,101409.31
2022-08-29T06:47:24.244Z,101325.97
2022-08-29T06:49:27.901Z,101424.75
2022-08-29T06:51:33.219Z,101302.56
2022-08-29T06:53:37.362Z,101273.53
2022-08-29T06:55:40.317Z,101432.88
2022-08-29T06:57:45.573Z,101429.38
2022-08-29T06:59:48.164Z,101399.84
2022-08-29T07:01:51.094Z,101409.31
2022-08-29T07:03:56.274Z,101392.06
2022-08-29T07:05:58.882Z,101408.22
2022-08-29T07:08:01.752Z,101385.09
2022-08-29T07:10:06.886Z,101419.34
2022-08-29T07:12:09.722Z,101397.13
2022-08-29T07:14:13.529Z,101435.50
2022-08-29T07:16:18.906Z,101430.69
2022-08-29T07:18:22.823Z,101386.19
2022-08-29T07:20:25.512Z,101402.19
2022-08-29T07:22:28.170Z,101401.56
2022-08-29T07:24:32.593Z,101363.81
2022-08-29T07:26:42.325Z,101452.66
2022-08-29T07:28:48.314Z,101439.84
2022-08-29T07:30:51.030Z,101444.03
2022-08-29T07:32:53.875Z,101448.25
2022-08-29T07:34:56.594Z,101432.72
2022-08-29T07:37:01.445Z,101366.28
2022-08-29T07:39:09.033Z,101365.13
2022-08-29T07:41:16.394Z,101276.38
2022-08-29T07:43:20.894Z,101330.13
2022-08-29T07:45:24.823Z,101325.88
2022-08-29T07:47:28.938Z,101425.00
2022-08-29T07:49:40.987Z,101440.63
2022-08-29T07:51:44.801Z,101323.09
2022-08-29T07:53:47.536Z,101440.56
2022-08-29T07:55:50.148Z,101399.75
2022-08-29T07:57:53.598Z,101437.34
2022-08-29T07:59:56.275Z,101459.38
2022-08-29T08:01:59.070Z,101410.06
2022-08-29T08:04:02.091Z,101427.22
2022-08-29T08:06:11.720Z,101427.34
2022-08-29T08:08:14.970Z,101337.63
2022-08-29T08:10:20.463Z,101452.25
2022-08-29T08:12:25.716Z,101453.72
2022-08-29T08:14:34.704Z,101455.34
2022-08-29T08:16:38.794Z,101390.19
2022-08-29T08:18:49.628Z,101386.38
2022-08-29T08:20:52.483Z,101427.13
2022-08-29T08:22:55.182Z,101464.88
2022-08-29T08:24:57.737Z,101370.88
2022-08-29T08:27:00.546Z,101357.03
2022-08-29T08:29:03.917Z,101420.13
2022-08-29T08:31:09.774Z,101447.31
2022-08-29T08:33:12.679Z,101471.69
2022-08-29T08:35:16.535Z,101440.69
2022-08-29T08:37:24.269Z,101334.13
2022-08-29T08:39:31.029Z,101379.13
2022-08-29T08:41:33.556Z,101460.47
2022-08-29T08:43:56.580Z,101469.25
2022-08-29T08:45:59.916Z,101409.81
2022-08-29T08:48:10.892Z,101455.66
2022-08-29T08:50:54.612Z,101440.06
2022-08-29T08:53:07.515Z,101459.97
2022-08-29T08:55:33.714Z,101431.59
2022-08-29T08:57:42.025Z,101404.06
2022-08-29T08:59:50.557Z,101444.25
2022-08-29T09:02:12.245Z,101455.78
2022-08-29T09:05:03.258Z,101438.75
2022-08-29T09:07:40.921Z,101458.34
2022-08-29T09:10:15.091Z,101480.00
2022-08-29T09:12:57.007Z,101483.38
2022-08-29T09:15:20.905Z,101471.16
2022-08-29T09:17:56.072Z,101442.72
2022-08-29T09:19:58.654Z,101450.47
2022-08-29T09:22:15.363Z,101446.56
2022-08-29T09:24:36.722Z,101451.09
2022-08-29T09:26:39.322Z,101411.81
2022-08-29T09:28:41.962Z,101388.66
2022-08-29T09:31:26.298Z,101466.53
2022-08-29T09:33:42.837Z,101461.47
2022-08-29T09:35:52.718Z,101423.03
2022-08-29T09:38:09.182Z,101414.09
2022-08-29T09:40:19.047Z,101431.03
2022-08-29T09:42:23.440Z,101434.06
2022-08-29T09:44:33.693Z,101465.44
2022-08-29T09:46:36.440Z,101459.41
2022-08-29T09:48:52.913Z,101406.16
2022-08-29T09:51:24.622Z,101454.81
2022-08-29T09:53:27.523Z,101448.88
2022-08-29T09:55:36.446Z,101390.34
2022-08-29T09:57:39.373Z,101449.84
2022-08-29T09:59:49.699Z,101453.56
2022-08-29T10:02:27.610Z,101453.91
2022-08-29T10:04:39.703Z,101412.91
2022-08-29T10:06:46.272Z,101374.25
2022-08-29T10:09:00.178Z,101478.06
2022-08-29T10:11:16.415Z,101490.97
2022-08-29T10:13:30.440Z,101476.75
2022-08-29T10:15:54.621Z,101473.75
2022-08-29T10:18:27.361Z,101481.97
2022-08-29T10:21:02.956Z,101453.66
2022-08-29T10:23:20.550Z,101476.13
2022-08-29T10:25:40.598Z,101484.28
2022-08-29T10:28:24.208Z,101478.09
2022-08-29T10:30:42.372Z,101460.97
2022-08-29T10:33:35.035Z,101429.66
2022-08-29T10:36:15.605Z,101457.97
2022-08-29T10:38:26.537Z,101486.19
2022-08-29T10:40:55.620Z,101478.56
2022-08-29T10:43:29.303Z,101498.66
2022-08-29T10:46:04.892Z,101505.09
2022-08-29T10:48:19.972Z,101406.09
2022-08-29T10:50:44.068Z,101503.78
2022-08-29T10:53:01.930Z,101503.00
2022-08-29T10:55:24.182Z,101454.00
2022-08-29T10:58:12.778Z,101492.56
2022-08-29T11:00:28.435Z,101389.22
2022-08-29T11:02:58.695Z,101491.19
2022-08-29T11:05:13.992Z,101488.53
2022-08-29T11:07:28.625Z,101489.06
2022-08-29T11:09:45.182Z,101473.66
2022-08-29T11:12:10.257Z,101407.13
2022-08-29T11:14:29.061Z,101477.38
2022-08-29T11:16:50.978Z,101416.09
2022-08-29T11:19:13.439Z,101410.81
2022-08-29T11:21:57.526Z,101479.88
2022-08-29T11:24:03.243Z,101462.41
2022-08-29T11:26:40.174Z,101488.69
2022-08-29T11:28:57.345Z,101451.53
2022-08-29T11:31:59.403Z,101496.84
2022-08-29T11:34:23.079Z,101500.22
2022-08-29T11:37:03.346Z,101501.44
2022-08-29T11:40:05.186Z,101509.47
2022-08-29T11:42:13.336Z,101486.28
2022-08-29T11:44:41.094Z,101467.16
2022-08-29T11:46:56.026Z,101487.63
2022-08-29T11:49:25.329Z,101414.03
2022-08-29T11:51:38.445Z,101484.88
2022-08-29T11:53:41.022Z,101390.16
2022-08-29T11:55:46.317Z,101496.00
2022-08-29T11:58:03.406Z,101479.88
2022-08-29T12:00:35.758Z,101488.22
2022-08-29T12:02:39.359Z,101516.75
2022-08-29T12:05:20.743Z,101509.56
2022-08-29T12:07:38.722Z,101415.91
2022-08-29T12:09:54.187Z,101494.97
2022-08-29T12:11:59.466Z,101501.16
2022-08-29T12:14:04.884Z,101485.47
2022-08-29T12:16:09.844Z,101481.31
2022-08-29T12:18:17.905Z,101491.19
2022-08-29T12:20:47.130Z,101451.69
2022-08-29T12:23:07.989Z,101292.97
2022-08-29T12:25:43.784Z,101477.38
2022-08-29T12:28:06.335Z,101434.50
2022-08-29T12:30:14.150Z,101399.75
2022-08-29T12:32:41.116Z,101473.25
2022-08-29T12:35:33.620Z,101475.78
2022-08-29T12:38:15.527Z,101446.56
2022-08-29T12:40:57.707Z,101473.44
2022-08-29T12:43:22.637Z,101455.66
2022-08-29T12:45:28.204Z,101360.09
2022-08-29T12:47:47.551Z,101458.47
2022-08-29T12:49:59.555Z,101431.34
2022-08-29T12:52:08.278Z,101257.41
2022-08-29T12:54:12.655Z,101370.34
2022-08-29T12:56:22.370Z,101271.38
2022-08-29T12:58:47.626Z,101259.06
2022-08-29T13:00:54.131Z,101384.47
2022-08-29T13:03:20.477Z,101337.78
2022-08-29T13:05:29.936Z,101228.78
2022-08-29T13:07:32.886Z,101244.56
2022-08-29T13:09:42.069Z,101435.94
2022-08-29T13:11:44.697Z,101408.44
2022-08-29T13:13:47.269Z,101358.03
2022-08-29T13:15:56.707Z,101418.88
2022-08-29T13:18:07.496Z,101407.28
2022-08-29T13:20:48.912Z,101430.34
2022-08-29T13:22:51.685Z,101350.19
2022-08-29T13:25:06.618Z,101419.38
2022-08-29T13:27:10.856Z,101415.75
2022-08-29T13:29:38.993Z,101413.69
2022-08-29T13:32:24.277Z,101426.69
2022-08-29T13:34:27.079Z,101321.94
2022-08-29T13:37:00.162Z,101414.41
2022-08-29T13:39:18.238Z,101434.63
2022-08-29T13:41:28.683Z,101412.63
2022-08-29T13:43:43.372Z,101428.03
2022-08-29T13:45:46.033Z,101331.34
2022-08-29T13:47:59.704Z,101421.94
2022-08-29T13:50:11.084Z,101422.41
2022-08-29T13:52:15.034Z,101297.13
2022-08-29T13:54:18.350Z,101414.59
2022-08-29T13:56:32.632Z,101423.53
2022-08-29T13:58:35.479Z,101302.91
2022-08-29T14:00:38.157Z,101406.22
2022-08-29T14:02:45.166Z,101387.72
2022-08-29T14:04:48.503Z,101374.22
2022-08-29T14:06:51.602Z,101372.47
2022-08-29T14:08:54.839Z,101369.03
2022-08-29T14:10:57.468Z,101313.47
2022-08-29T14:13:00.179Z,101297.41
2022-08-29T14:15:09.413Z,101394.81
2022-08-29T14:17:19.041Z,101362.59
2022-08-29T14:19:21.732Z,101374.13
2022-08-29T14:21:24.780Z,101379.78
2022-08-29T14:23:27.427Z,101315.00
2022-08-29T14:25:30.273Z,101391.41
2022-08-29T14:27:33.298Z,101306.53
2022-08-29T14:29:36.638Z,101309.91
2022-08-29T14:31:39.694Z,101404.63
2022-08-29T14:33:42.391Z,101403.94
2022-08-29T14:35:47.788Z,101375.22
2022-08-29T14:37:50.558Z,101291.84
2022-08-29T14:39:53.316Z,101392.97
2022-08-29T14:41:56.256Z,101385.44
2022-08-29T14:43:59.174Z,101262.81
2022-08-29T14:46:01.816Z,101274.16
2022-08-29T14:48:06.492Z,101296.56
2022-08-29T14:50:12.108Z,101343.19
2022-08-29T14:52:15.251Z,101338.31
2022-08-29T14:54:18.170Z,101266.00
2022-08-29T14:56:47.465Z,101384.59
2022-08-29T14:58:52.137Z,101364.66
2022-08-29T15:00:55.066Z,101361.38
2022-08-29T15:02:58.344Z,101300.94
2022-08-29T15:05:01.071Z,101344.28
2022-08-29T15:07:08.619Z,101340.03
2022-08-29T15:09:11.359Z,101303.34
2022-08-29T15:11:14.312Z,101386.63
2022-08-29T15:13:17.098Z,101296.34
2022-08-29T15:15:20.403Z,101381.47
2022-08-29T15:17:24.299Z,101358.16
2022-08-29T15:21:49.598Z,101261.16
2022-08-29T15:23:52.254Z,101364.19
2022-08-29T15:25:54.847Z,101302.38
2022-08-29T15:27:57.648Z,101329.31
2022-08-29T15:30:00.335Z,101358.44
2022-08-29T15:32:03.834Z,101276.56
2022-08-29T15:34:06.716Z,101353.44
2022-08-29T15:36:09.911Z,101355.75
2022-08-29T15:38:12.577Z,101365.47
2022-08-29T15:40:15.684Z,101357.63
2022-08-29T15:42:18.544Z,101355.03
2022-08-29T15:44:21.407Z,101348.06
2022-08-29T15:46:29.197Z,101329.19
2022-08-29T15:48:32.390Z,101362.41
2022-08-29T15:50:35.595Z,101367.47
2022-08-29T15:52:39.045Z,101330.09
2022-08-29T15:54:41.610Z,101356.81
2022-08-29T15:56:44.853Z,101298.00
2022-08-29T15:58:48.366Z,101361.13
2022-08-29T16:00:51.262Z,101229.06
2022-08-29T16:02:54.902Z,101344.28
2022-08-29T16:05:02.111Z,101236.41
2022-08-29T16:07:12.772Z,101345.69
2022-08-29T16:09:16.605Z,101269.13
2022-08-29T16:11:19.229Z,101346.88
2022-08-29T16:13:22.650Z,101344.53
2022-08-29T16:15:25.582Z,101349.69
2022-08-29T16:17:31.925Z,101320.78
2022-08-29T16:19:37.297Z,101258.06
2022-08-29T16:21:41.904Z,101258.16
2022-08-29T16:23:44.584Z,101336.47
2022-08-29T16:25:47.278Z,101244.97
2022-08-29T16:27:50.448Z,101354.66
2022-08-29T16:29:54.262Z,101354.66
2022-08-29T16:31:58.522Z,101345.31
2022-08-29T16:34:02.449Z,101321.47
2022-08-29T16:36:06.817Z,101347.19
2022-08-29T16:38:10.477Z,101269.28
2022-08-29T16:40:17.278Z,101328.44
2022-08-29T16:42:19.900Z,101310.75
2022-08-29T16:44:23.187Z,101346.72
2022-08-29T16:46:31.092Z,101273.56
2022-08-29T16:48:35.517Z,101342.25
2022-08-29T16:50:38.448Z,101247.13
2022-08-29T16:52:41.367Z,101309.72
2022-08-29T16:54:44.039Z,101310.41
2022-08-29T16:56:46.943Z,101346.09
2022-08-29T16:59:00.430Z,101255.03
2022-08-29T17:01:03.197Z,101258.81
2022-08-29T17:03:05.919Z,101315.56
2022-08-29T17:05:08.619Z,101323.88
2022-08-29T17:07:11.203Z,101307.47
2022-08-29T17:09:16.637Z,101349.81
2022-08-29T17:11:19.533Z,101309.25
2022-08-29T17:13:22.960Z,101345.63
2022-08-29T17:15:25.888Z,101343.59
2022-08-29T17:17:28.526Z,101310.31
2022-08-29T17:19:33.403Z,101331.56
2022-08-29T17:21:36.643Z,101226.66
2022-08-29T17:23:39.553Z,101248.47
2022-08-29T17:25:42.911Z,101246.31
2022-08-29T17:28:00.794Z,101267.75
2022-08-29T17:30:09.762Z,101281.13
2022-08-29T17:32:12.379Z,101310.72
2022-08-29T17:34:16.257Z,101211.91
2022-08-29T17:36:19.447Z,101343.63
2022-08-29T17:38:22.512Z,101316.38
2022-08-29T17:41:17.159Z,101340.09
2022-08-29T17:43:20.221Z,101343.41
2022-08-29T17:45:22.971Z,101329.06
2022-08-29T17:47:26.007Z,101304.19
2022-08-29T17:49:28.583Z,101260.34
2022-08-29T17:51:31.189Z,101332.78
2022-08-29T17:53:34.904Z,101238.63
2022-08-29T17:55:37.930Z,101224.22
2022-08-29T17:57:40.747Z,101246.06
2022-08-29T17:59:43.483Z,101245.34
2022-08-29T18:01:46.686Z,101349.53
2022-08-29T18:03:49.361Z,101345.38
2022-08-29T18:05:51.995Z,101300.97
2022-08-29T18:07:54.668Z,101323.63
2022-08-29T18:09:58.084Z,101358.81
2022-08-29T18:12:00.802Z,101263.25
2022-08-29T18:14:03.652Z,101244.16
2022-08-29T18:16:32.392Z,101333.97
2022-08-29T18:18:34.992Z,101322.31
2022-08-29T18:20:39.558Z,101237.69
2022-08-29T18:22:43.418Z,101248.38
2022-08-29T18:25:22.214Z,101323.16
2022-08-29T18:27:27.263Z,101370.81
2022-08-29T18:29:29.910Z,101334.91
2022-08-29T18:31:32.986Z,101295.09
2022-08-29T18:33:57.236Z,101362.91
2022-08-29T18:35:59.448Z,101364.81
2022-08-29T18:38:02.481Z,101278.19
2022-08-29T18:40:07.937Z,101382.41
2022-08-29T18:42:30.416Z,101374.72
2022-08-29T18:44:34.973Z,101375.00
2022-08-29T18:46:48.065Z,101382.50
2022-08-29T18:48:51.643Z,101269.03
2022-08-29T18:50:55.536Z,101379.88
2022-08-29T18:52:58.160Z,101367.69
2022-08-29T18:55:00.846Z,101295.94
2022-08-29T18:57:07.127Z,101289.25
2022-08-29T18:59:17.680Z,101375.44
2022-08-29T19:01:27.350Z,101384.75
2022-08-29T19:03:31.401Z,101309.28
2022-08-29T19:06:04.779Z,101378.72
2022-08-29T19:08:10.280Z,101420.81
2022-08-29T19:10:13.004Z,101313.84
2022-08-29T19:12:16.683Z,101364.72
2022-08-29T19:14:19.581Z,101413.38
2022-08-29T19:16:31.913Z,101389.97
2022-08-29T19:18:35.173Z,101372.19
2022-08-29T19:20:56.544Z,101316.59
2022-08-29T19:22:59.637Z,101426.00
2022-08-29T19:25:05.858Z,101427.34
2022-08-29T19:27:21.724Z,101427.09
2022-08-29T19:30:05.530Z,101402.91
2022-08-29T19:32:08.406Z,101412.25
2022-08-29T19:34:11.583Z,101333.94
2022-08-29T19:36:15.240Z,101373.13
2022-08-29T19:39:44.199Z,101445.81
2022-08-29T19:41:47.683Z,101409.56
2022-08-29T19:43:50.396Z,101393.91
2022-08-29T19:45:54.047Z,101353.13
2022-08-29T19:47:58.921Z,101411.19
2022-08-29T19:50:02.376Z,101421.59
2022-08-29T19:52:05.056Z,101427.13
2022-08-29T19:54:07.855Z,101342.97
2022-08-29T19:56:11.912Z,101444.69
2022-08-29T19:58:16.633Z,101358.13
2022-08-29T20:00:23.882Z,101438.84
2022-08-29T20:02:26.787Z,101299.75
2022-08-29T20:04:54.428Z,101436.16
2022-08-29T20:07:00.119Z,101418.53
2022-08-29T20:09:03.176Z,101426.56
2022-08-29T20:11:12.796Z,101455.59
2022-08-29T20:13:15.505Z,101415.34
2022-08-29T20:15:19.800Z,101436.69
2022-08-29T20:17:22.431Z,101318.88
2022-08-29T20:19:26.381Z,101372.72
2022-08-29T20:21:29.424Z,101415.06
2022-08-29T20:23:32.025Z,101323.63
2022-08-29T20:25:35.841Z,101436.66
2022-08-29T20:27:40.003Z,101439.25
2022-08-29T20:29:42.703Z,101433.13
2022-08-29T20:31:45.421Z,101396.59
2022-08-29T20:33:49.192Z,101367.81
2022-08-29T20:36:11.149Z,101468.03
2022-08-29T20:38:13.925Z,101323.00
2022-08-29T20:40:18.122Z,101444.81
2022-08-29T20:42:22.251Z,101422.16
2022-08-29T20:44:33.741Z,101465.84
2022-08-29T20:46:54.830Z,101443.41
2022-08-29T20:48:57.522Z,101420.94
2022-08-29T20:51:07.401Z,101359.06
2022-08-29T20:53:14.619Z,101442.53
2022-08-29T20:55:34.214Z,101380.91
2022-08-29T20:57:39.167Z,101448.59
2022-08-29T20:59:42.892Z,101458.16
2022-08-29T21:01:46.357Z,101448.84
2022-08-29T21:04:07.386Z,101472.56
2022-08-29T21:06:10.091Z,101454.16
2022-08-29T21:08:20.674Z,101475.19
2022-08-29T21:10:24.707Z,101337.31
2022-08-29T21:12:27.654Z,101349.31
2022-08-29T21:14:30.283Z,101277.56
2022-08-29T21:16:32.893Z,101431.19
2022-08-29T21:18:35.708Z,101428.72
2022-08-29T21:20:53.471Z,101497.53
2022-08-29T21:23:00.723Z,101493.75
2022-08-29T21:25:03.466Z,101346.25
2022-08-29T21:27:06.195Z,101408.63
2022-08-29T21:29:09.583Z,101358.69
2022-08-29T21:31:13.770Z,101503.06
2022-08-29T21:33:17.168Z,101404.31
2022-08-29T21:35:22.687Z,101499.28
2022-08-29T21:37:25.447Z,101389.06
2022-08-29T21:39:29.258Z,101405.09
2022-08-29T21:41:34.043Z,101500.91
2022-08-29T21:43:37.061Z,101490.16
2022-08-29T21:45:39.703Z,101486.13
2022-08-29T21:47:42.507Z,101379.34
2022-08-29T21:49:45.429Z,101328.97
2022-08-29T21:51:49.593Z,101490.34
2022-08-29T21:53:55.504Z,101452.94
2022-08-29T21:55:58.162Z,101428.88
2022-08-29T21:58:01.739Z,101463.16
2022-08-29T22:00:08.022Z,101463.06
2022-08-29T22:02:10.580Z,101516.22
2022-08-29T22:04:19.192Z,101506.06
2022-08-29T22:06:31.886Z,101488.19
2022-08-29T22:08:35.311Z,101524.72
2022-08-29T22:10:38.873Z,101376.06
2022-08-29T22:12:41.499Z,101470.53
2022-08-29T22:15:02.954Z,101425.53
2022-08-29T22:17:05.601Z,101465.81
2022-08-29T22:19:15.109Z,101505.56
2022-08-29T22:21:18.160Z,101405.63
2022-08-29T22:23:21.336Z,101435.19
2022-08-29T22:25:24.484Z,101374.84
2022-08-29T22:27:27.121Z,101462.81
2022-08-29T22:29:29.770Z,101410.72
2022-08-29T22:31:32.728Z,101428.03
2022-08-29T22:33:35.530Z,101422.13
2022-08-29T22:35:38.343Z,101466.13
2022-08-29T22:37:41.412Z,101484.28
2022-08-29T22:40:03.827Z,101517.97
2022-08-29T22:42:08.266Z,101490.03
2022-08-29T22:46:36.244Z,101402.41
2022-08-29T22:48:39.522Z,101432.06
2022-08-29T22:50:54.069Z,101527.72
2022-08-29T22:53:02.090Z,101519.16
2022-08-29T22:55:07.539Z,101524.53
2022-08-29T22:57:17.035Z,101533.88
2022-08-29T22:59:19.703Z,101533.06
2022-08-29T23:01:22.335Z,101522.56
2022-08-29T23:03:25.130Z,101445.69
2022-08-29T23:05:27.795Z,101381.09
2022-08-29T23:07:30.426Z,101426.78
2022-08-29T23:09:34.999Z,101538.69
2022-08-29T23:11:39.221Z,101507.78
2022-08-29T23:13:42.678Z,101535.00
2022-08-29T23:15:45.497Z,101428.72
2022-08-29T23:17:48.169Z,101532.31
2022-08-29T23:19:52.977Z,101513.63
2022-08-29T23:21:56.547Z,101437.81
2022-08-29T23:24:00.202Z,101523.34
2022-08-29T23:26:29.591Z,101513.00
2022-08-29T23:28:33.829Z,101526.63
2022-08-29T23:30:38.462Z,101477.78
2022-08-29T23:32:41.679Z,101403.41
2022-08-29T23:34:44.338Z,101502.94
2022-08-29T23:36:46.942Z,101438.97
2022-08-29T23:38:50.146Z,101419.50
2022-08-29T23:40:56.998Z,101519.25
2022-08-29T23:42:59.714Z,101395.38
2022-08-29T23:45:02.320Z,101489.25
2022-08-29T23:47:05.222Z,101456.72
2022-08-29T23:49:11.130Z,101517.00
2022-08-29T23:51:14.661Z,101479.31
2022-08-29T23:53:17.383Z,101483.31
2022-08-29T23:55:20.185Z,101423.94
2022-08-29T23:57:22.805Z,101454.84
2022-08-29T23:59:43.969Z,101459.06
